• Join FlightAware (Why Join?)
  • Login
  • US Flag 
12:07PM EDT


 

Airport Tracker/Info


-or-


 

Live Flight TrackerFlight Track Log ✈ UAL4191 ✈ 04-Oct-2013 ✈ KEWR - KBNA

Flight Track Log - Related Links

Times and Time Zones

All times are in EDT time to prevent confusion due to time zone crossing. See the UAL4191 flight status page for this flight to view local times or setup timezone preferences in your user account.

Time Position Orientation Groundspeed Altitude Reporting Facility
EDT Latitude Longitude Course Direction KTS MPH feet Rate Location/Type
08:00PM 40.6500 -74.1833 240° Southwest 182 209 1,600  Level New York TRACON
08:01PM 40.6000 -74.2167 207° Southwest 236 272 3,100 1,800 Climbing New York TRACON
08:02PM 40.5833 -74.3167 258° West 255 293 5,300 2,340 Climbing New York TRACON
08:03PM 40.5833 -74.4000 270° West 264 304 7,800 1,980 Climbing New York TRACON
08:04PM 40.5083 -74.7941 252° West  Level Estimated
08:05PM 40.4711 -74.9188 237° Southwest  Level Estimated
08:05PM 40.6053 -74.5486 281° West 260 299 10,500  Level New York Center
08:06PM 40.4337 -75.0433 240° Southwest  Level Estimated
08:06PM 40.6225 -74.6644 281° West 296 341 11,300  Level New York Center
08:07PM 40.6414 -74.7831 282° West 326 375 12,700 1,380 Climbing New York Center
08:08PM 40.6581 -74.9044 280° West 339 390 14,200 1,380 Climbing New York Center
08:09PM 40.6767 -75.0261 281° West 344 396 15,600 1,320 Climbing New York Center
08:10PM 40.6536 -75.1450 256° West 333 383 16,900 1,260 Climbing New York Center
08:11PM 40.6014 -75.2564 238° Southwest 346 398 18,200 1,140 Climbing New York Center
08:12PM 40.5578 -75.3575 240° Southwest 358 412 19,200 1,260 Climbing New York Center
08:13PM 40.5056 -75.4686 238° Southwest 358 412 20,800 1,680 Climbing New York Center
08:14PM 40.4575 -75.5744 239° Southwest 351 404 22,600 1,380 Climbing New York Center
08:15PM 40.4075 -75.6800 238° Southwest 346 398 23,600 960 Climbing New York Center
08:16PM 40.3569 -75.7908 239° Southwest 346 398 24,600 1,020 Climbing New York Center
08:17PM 40.3019 -75.9039 237° Southwest 353 406 25,700 1,020 Climbing New York Center
08:18PM 40.2469 -76.0167 237° Southwest 359 413 26,700 960 Climbing New York Center
08:19PM 40.1939 -76.1322 239° Southwest 369 425 27,700 960 Climbing New York Center
08:20PM 40.1358 -76.2581 239° Southwest 369 425 28,700 900 Climbing New York Center
08:21PM 40.0872 -76.3656 239° Southwest 376 433 29,600 900 Climbing New York Center
08:22PM 40.0336 -76.4806 239° Southwest 376 433 30,600 960 Climbing New York Center
08:24PM 39.8911 -76.7839 239° Southwest 387 445 33,100 1,020 Climbing Washington Center
08:25PM 39.8358 -76.8992 238° Southwest 387 445 34,200 960 Climbing Washington Center
08:26PM 39.7822 -77.0172 239° Southwest 387 445 35,100 900 Climbing Washington Center
08:27PM 39.7267 -77.1319 238° Southwest 381 438 36,000 420 Climbing Washington Center
08:28PM 39.6689 -77.2522 238° Southwest 388 447 36,000  Level Washington Center
08:29PM 39.6131 -77.3775 240° Southwest 394 453 36,000  Level Washington Center
08:30PM 39.5483 -77.5103 238° Southwest 410 472 36,000  Level Washington Center
08:31PM 39.4878 -77.6406 239° Southwest 424 488 36,000  Level Washington Center
08:32PM 39.4253 -77.7678 238° Southwest 424 488 36,000  Level Washington Center
08:33PM 39.3686 -77.8975 241° Southwest 424 488 36,000  Level Washington Center
08:34PM 39.3161 -78.0300 243° Southwest 419 482 36,000  Level Washington Center
08:35PM 39.2589 -78.1675 242° Southwest 419 482 36,000  Level Washington Center
08:36PM 39.2039 -78.3022 242° Southwest 424 488 36,000  Level Washington Center
08:37PM 39.1508 -78.4367 243° Southwest 429 494 36,000  Level Washington Center
08:38PM 39.0953 -78.5736 242° Southwest 429 494 36,000  Level Washington Center
08:39PM 39.0419 -78.7078 243° Southwest 424 488 36,000  Level Washington Center
08:40PM 38.9883 -78.8417 243° Southwest 424 488 36,000  Level Washington Center
08:41PM 38.9325 -78.9728 241° Southwest 424 488 36,000  Level Washington Center
08:42PM 38.8786 -79.1064 243° Southwest 424 488 36,000  Level Washington Center
08:43PM 38.8328 -79.2453 247° West 424 488 36,000  Level Washington Center
08:44PM 38.8075 -79.3881 257° West 413 475 36,000  Level Washington Center
08:45PM 38.7872 -79.5014 257° West 413 475 36,000  Level Washington Center
08:48PM 38.7150 -79.8903 257° West 424 488 36,000  Level Indianapolis Center
08:49PM 38.6881 -80.0353 257° West 421 484 36,000  Level Indianapolis Center
08:50PM 38.6600 -80.1819 256° West 422 486 36,000  Level Indianapolis Center
08:51PM 38.6322 -80.3289 256° West 425 489 36,000  Level Indianapolis Center
08:52PM 38.6047 -80.4744 256° West 421 484 36,000  Level Indianapolis Center
08:53PM 38.5778 -80.6192 257° West 419 482 36,000  Level Indianapolis Center
08:54PM 38.5494 -80.7633 256° West 420 483 36,000  Level Indianapolis Center
08:55PM 38.5161 -80.9364 256° West 417 480 36,000  Level Indianapolis Center
08:56PM 38.4875 -81.0792 256° West 415 478 36,000  Level Indianapolis Center
08:57PM 38.4594 -81.2228 256° West 414 476 36,000  Level Indianapolis Center
08:58PM 38.4308 -81.3650 256° West 411 473 36,000  Level Indianapolis Center
08:59PM 38.4025 -81.5086 256° West 412 474 36,000  Level Indianapolis Center
09:00PM 38.3739 -81.6506 256° West 411 473 36,000  Level Indianapolis Center
09:01PM 38.3447 -81.7892 255° West 404 465 36,000  Level Indianapolis Center
09:02PM 38.3061 -81.9264 250° West 408 470 36,000  Level Indianapolis Center
09:03PM 38.2675 -82.0619 250° West 407 468 36,000  Level Indianapolis Center
09:04PM 38.2297 -82.1986 251° West 408 470 36,000  Level Indianapolis Center
09:05PM 38.1919 -82.3342 251° West 408 470 36,000  Level Indianapolis Center
09:06PM 38.1531 -82.4694 250° West 406 467 36,000  Level Indianapolis Center
09:07PM 38.1111 -82.6142 250° West 406 467 36,000  Level Indianapolis Center
09:08PM 38.0711 -82.7483 249° West 408 470 36,000  Level Indianapolis Center
09:09PM 38.0331 -82.8842 250° West 410 472 36,000  Level Indianapolis Center
09:10PM 37.9867 -83.0408 249° West 409 471 36,000  Level Indianapolis Center
09:11PM 37.9478 -83.1750 250° West 407 468 36,000 -300 Level Indianapolis Center
09:12PM 37.8981 -83.3056 244° Southwest 414 476 35,500 -840 Descending Indianapolis Center
09:13PM 37.8336 -83.4231 235° Southwest 410 472 34,400 -780 Descending Indianapolis Center
09:15PM 37.7700 -83.5436 236° Southwest 413 475 34,000 -240 Descending Indianapolis Center
09:16PM 37.7058 -83.6639 236° Southwest 414 476 34,000  Level Indianapolis Center
09:17PM 37.6400 -83.7867 236° Southwest 420 483 34,000  Level Indianapolis Center
09:18PM 37.5739 -83.9089 236° Southwest 423 487 34,000  Level Indianapolis Center
09:19PM 37.4961 -84.0517 236° Southwest 425 489 34,000  Level Indianapolis Center
09:20PM 37.4303 -84.1750 236° Southwest 425 489 34,000 -480 Level Indianapolis Center
09:21PM 37.3642 -84.2972 236° Southwest 423 487 33,100 -900 Descending Indianapolis Center
09:22PM 37.2972 -84.4192 235° Southwest 424 488 32,200 -600 Descending Indianapolis Center
09:23PM 37.2306 -84.5406 235° Southwest 422 486 32,000 -120 Descending Indianapolis Center
09:24PM 37.1642 -84.6631 236° Southwest 423 487 32,000 -420 Level Indianapolis Center
09:25PM 37.0950 -84.7858 235° Southwest 432 497 31,200 -1,380 Descending Indianapolis Center
09:26PM 37.0222 -84.9172 235° Southwest 425 489 29,200 -1,980 Descending Indianapolis Center
09:27PM 36.9556 -85.0369 235° Southwest 423 487 27,200 -2,040 Descending Indianapolis Center
09:28PM 36.8861 -85.1606 235° Southwest 431 496 25,100 -2,040 Descending Indianapolis Center
09:29PM 36.8175 -85.2839 235° Southwest 434 499 23,100 -1,560 Descending Indianapolis Center
09:30PM 36.7500 -85.4042 235° Southwest 428 493 22,000 -1,140 Descending Indianapolis Center
09:31PM 36.6908 -85.5286 239° Southwest 420 483 20,800 -2,160 Descending Indianapolis Center
09:32PM 36.6242 -85.6694 239° Southwest 398 458 17,700 -2,400 Descending Indianapolis Center
09:33PM 36.5700 -85.7839 240° Southwest 388 447 16,000 -1,680 Descending Indianapolis Center
09:34PM 36.5197 -85.8889 239° Southwest 387 445 14,300 -1,680 Descending Indianapolis Center
09:35PM 36.4686 -85.9944 239° Southwest 363 418 12,600 -1,800 Descending Indianapolis Center
09:36PM 36.4194 -86.0981 239° Southwest 347 399 10,700 -1,260 Descending Indianapolis Center
09:37PM 36.3953 -86.2175 256° West 359 413 10,100 -360 Descending Indianapolis Center
09:38PM 36.3756 -86.3286 258° West 335 386 10,000 -1,080 Descending Indianapolis Center
09:39PM 36.3575 -86.4192 256° West 275 316 8,000 -2,400 Descending Indianapolis Center
09:40PM 36.3142 -86.4867 231° Southwest 248 285 5,200 -2,340 Descending Indianapolis Center
09:41PM 36.2667 -86.5667 234° Southwest 223 257 3,000 -1,440 Descending Nashville TRACON
09:42PM 36.2333 -86.6167 230° Southwest 183 211 2,200 -600 Descending Nashville TRACON
09:43PM 36.2000 -86.6500 219° Southwest 153 176 1,800 -600 Descending Nashville TRACON
09:44PM 36.1667 -86.6667 202° Southwest 117 135 1,100 -660 Descending Nashville TRACON
09:45PM 36.1353 -86.6794 198° South 134 154 500 -540 Descending Memphis Center